createdAt,value
2023-01-15T00:01:26.225Z,66.44
2023-01-15T00:03:29.835Z,66.88
2023-01-15T00:05:32.570Z,66.98
2023-01-15T00:07:35.279Z,66.74
2023-01-15T00:09:37.898Z,67.01
2023-01-15T00:11:40.579Z,67.32
2023-01-15T00:13:43.876Z,66.76
2023-01-15T00:15:46.634Z,66.62
2023-01-15T00:17:49.265Z,66.89
2023-01-15T00:19:51.967Z,67.21
2023-01-15T00:21:54.671Z,66.89
2023-01-15T00:24:15.917Z,66.79
2023-01-15T00:26:39.153Z,67.07
2023-01-15T00:28:42.928Z,66.87
2023-01-15T00:30:46.352Z,67.36
2023-01-15T00:32:49.571Z,67.23
2023-01-15T00:34:52.290Z,67.52
2023-01-15T00:36:54.978Z,67.09
2023-01-15T00:38:57.640Z,67.77
2023-01-15T00:41:00.242Z,67.24
2023-01-15T00:43:02.933Z,67.66
2023-01-15T00:45:13.100Z,67.71
2023-01-15T00:47:16.036Z,67.59
2023-01-15T00:49:18.917Z,67.63
2023-01-15T00:51:22.579Z,67.77
2023-01-15T00:53:25.164Z,68.12
2023-01-15T00:55:27.864Z,67.51
2023-01-15T00:57:30.547Z,67.73
2023-01-15T00:59:33.226Z,68.04
2023-01-15T01:01:36.518Z,67.73
2023-01-15T01:03:39.299Z,68.20
2023-01-15T01:05:41.887Z,67.96
2023-01-15T01:07:44.578Z,67.78
2023-01-15T01:09:47.365Z,67.75
2023-01-15T01:11:50.509Z,67.89
2023-01-15T01:13:54.682Z,68.00
2023-01-15T01:15:57.429Z,67.69
2023-01-15T01:18:00.178Z,67.76
2023-01-15T01:20:02.873Z,68.01
2023-01-15T01:22:06.509Z,68.35
2023-01-15T01:24:12.081Z,68.25
2023-01-15T01:26:14.788Z,67.92
2023-01-15T01:28:17.392Z,67.97
2023-01-15T01:30:20.145Z,67.90
2023-01-15T01:32:22.877Z,68.69
2023-01-15T01:34:25.773Z,68.32
2023-01-15T01:36:37.204Z,68.39
2023-01-15T01:38:39.828Z,68.07
2023-01-15T01:40:42.986Z,68.67
2023-01-15T01:42:45.810Z,68.68
2023-01-15T01:44:48.367Z,68.38
2023-01-15T01:46:50.996Z,68.23
2023-01-15T01:49:03.104Z,68.13
2023-01-15T01:51:06.385Z,68.14
2023-01-15T01:53:16.969Z,69.03
2023-01-15T01:55:22.395Z,68.49
2023-01-15T01:57:25.934Z,68.67
2023-01-15T01:59:29.185Z,68.38
2023-01-15T02:01:31.966Z,68.96
2023-01-15T02:03:38.606Z,68.77
2023-01-15T02:05:47.487Z,68.71
2023-01-15T02:07:50.145Z,68.87
2023-01-15T02:09:52.784Z,68.54
2023-01-15T02:11:58.802Z,69.00
2023-01-15T02:14:12.725Z,69.21
2023-01-15T02:16:52.093Z,69.11
2023-01-15T02:19:13.087Z,69.41
2023-01-15T02:21:23.647Z,69.58
2023-01-15T02:23:45.640Z,69.34
2023-01-15T02:26:25.707Z,69.17
2023-01-15T02:28:34.999Z,69.25
2023-01-15T02:30:45.810Z,69.15
2023-01-15T02:33:00.386Z,69.73
2023-01-15T02:35:08.678Z,69.80
2023-01-15T02:37:16.720Z,70.50
2023-01-15T02:39:21.719Z,69.90
2023-01-15T02:41:30.278Z,70.24
2023-01-15T02:43:36.049Z,69.65
2023-01-15T02:45:42.147Z,70.45
2023-01-15T02:47:47.210Z,70.08
2023-01-15T02:49:51.849Z,69.73
2023-01-15T02:52:13.904Z,70.26
2023-01-15T02:54:19.440Z,70.20
2023-01-15T02:56:25.683Z,69.91
2023-01-15T02:58:35.857Z,70.32
2023-01-15T03:00:44.087Z,69.67
2023-01-15T03:02:54.150Z,69.66
2023-01-15T03:05:06.190Z,69.57
2023-01-15T03:07:25.170Z,69.68
2023-01-15T03:09:30.975Z,70.10
2023-01-15T03:11:38.409Z,70.13
2023-01-15T03:13:46.601Z,69.96
2023-01-15T03:16:19.426Z,70.08
2023-01-15T03:18:23.038Z,70.21
2023-01-15T03:20:30.023Z,70.27
2023-01-15T03:22:39.985Z,70.40
2023-01-15T03:24:47.704Z,70.25
2023-01-15T03:26:50.697Z,71.01
2023-01-15T03:28:54.258Z,71.02
2023-01-15T03:30:57.077Z,71.12
2023-01-15T03:33:00.110Z,71.16
2023-01-15T03:35:04.381Z,70.92
2023-01-15T03:37:07.346Z,71.14
2023-01-15T03:39:10.208Z,71.54
2023-01-15T03:41:35.602Z,71.37
2023-01-15T03:43:47.327Z,71.39
2023-01-15T03:45:54.541Z,71.26
2023-01-15T03:48:19.182Z,71.69
2023-01-15T03:50:26.998Z,71.55
2023-01-15T03:52:45.940Z,71.55
2023-01-15T03:54:58.296Z,71.89
2023-01-15T03:57:20.315Z,72.18
2023-01-15T03:59:33.064Z,71.92
2023-01-15T04:01:39.890Z,71.49
2023-01-15T04:03:44.041Z,71.80
2023-01-15T04:05:49.066Z,71.28
2023-01-15T04:07:53.305Z,71.75
2023-01-15T04:09:55.959Z,71.46
2023-01-15T04:12:00.715Z,72.02
2023-01-15T04:14:03.396Z,71.55
2023-01-15T04:16:06.396Z,71.80
2023-01-15T04:18:09.141Z,72.36
2023-01-15T04:20:12.700Z,72.11
2023-01-15T04:22:15.480Z,71.45
2023-01-15T04:24:18.296Z,71.35
2023-01-15T04:26:20.943Z,72.17
2023-01-15T04:28:23.578Z,71.81
2023-01-15T04:30:26.181Z,71.74
2023-01-15T04:32:28.873Z,72.51
2023-01-15T04:34:31.602Z,72.04
2023-01-15T04:36:37.285Z,72.27
2023-01-15T04:38:40.363Z,71.81
2023-01-15T04:41:01.583Z,72.20
2023-01-15T04:43:23.049Z,72.67
2023-01-15T04:45:25.679Z,72.47
2023-01-15T04:47:31.176Z,73.06
2023-01-15T04:49:34.348Z,73.11
2023-01-15T04:51:37.615Z,73.58
2023-01-15T04:53:40.431Z,73.10
2023-01-15T04:55:43.059Z,73.07
2023-01-15T04:57:45.738Z,72.57
2023-01-15T04:59:48.553Z,72.74
2023-01-15T05:02:03.222Z,73.48
2023-01-15T05:04:07.661Z,72.92
2023-01-15T05:06:10.609Z,73.22
2023-01-15T05:08:13.308Z,72.14
2023-01-15T05:10:16.446Z,72.82
2023-01-15T05:12:19.117Z,72.60
2023-01-15T05:14:21.814Z,72.32
2023-01-15T05:16:28.815Z,72.96
2023-01-15T05:18:31.474Z,72.37
2023-01-15T05:20:37.584Z,73.07
2023-01-15T05:22:40.199Z,72.54
2023-01-15T05:24:42.781Z,72.45
2023-01-15T05:26:46.301Z,72.61
2023-01-15T05:28:49.976Z,72.16
2023-01-15T05:30:52.572Z,72.80
2023-01-15T05:32:55.318Z,72.72
2023-01-15T05:34:57.951Z,72.36
2023-01-15T05:37:00.693Z,72.14
2023-01-15T05:39:04.002Z,72.12
2023-01-15T05:41:29.649Z,72.72
2023-01-15T05:43:32.303Z,72.55
2023-01-15T05:45:36.738Z,72.65
2023-01-15T05:47:39.314Z,71.80
2023-01-15T05:49:41.960Z,72.55
2023-01-15T05:51:44.949Z,72.07
2023-01-15T05:53:47.612Z,72.71
2023-01-15T05:55:50.391Z,71.86
2023-01-15T05:57:53.027Z,72.42
2023-01-15T05:59:56.728Z,72.10
2023-01-15T06:01:59.834Z,72.62
2023-01-15T06:04:04.968Z,72.31
2023-01-15T06:06:10.972Z,71.17
2023-01-15T06:08:13.638Z,71.49
2023-01-15T06:10:17.688Z,71.18
2023-01-15T06:12:20.480Z,71.34
2023-01-15T06:14:23.411Z,71.30
2023-01-15T06:16:26.421Z,70.82
2023-01-15T06:18:29.241Z,70.21
2023-01-15T06:20:32.073Z,70.64
2023-01-15T06:22:34.938Z,70.64
2023-01-15T06:24:37.889Z,70.08
2023-01-15T06:26:40.570Z,70.20
2023-01-15T06:28:43.744Z,70.26
2023-01-15T06:30:46.434Z,70.54
2023-01-15T06:32:49.163Z,70.11
2023-01-15T06:34:51.951Z,70.54
2023-01-15T06:36:54.560Z,70.87
2023-01-15T06:38:57.418Z,69.65
2023-01-15T06:41:05.152Z,69.64
2023-01-15T06:43:36.945Z,69.84
2023-01-15T06:46:00.332Z,69.78
2023-01-15T06:48:02.959Z,69.36
2023-01-15T06:50:06.091Z,69.24
2023-01-15T06:52:08.849Z,69.08
2023-01-15T06:54:12.188Z,69.22
2023-01-15T06:56:15.709Z,68.60
2023-01-15T06:58:18.358Z,69.47
2023-01-15T07:00:21.264Z,68.60
2023-01-15T07:02:24.363Z,68.27
2023-01-15T07:04:27.306Z,69.89
2023-01-15T07:06:30.161Z,68.76
2023-01-15T07:08:32.764Z,68.74
2023-01-15T07:10:36.433Z,68.27
2023-01-15T07:12:39.093Z,67.96
2023-01-15T07:14:41.832Z,68.48
2023-01-15T07:16:44.740Z,68.39
2023-01-15T07:18:47.384Z,68.48
2023-01-15T07:20:50.078Z,68.25
2023-01-15T07:22:54.609Z,68.25
2023-01-15T07:24:57.367Z,67.96
2023-01-15T07:27:00.250Z,68.05
2023-01-15T07:29:03.646Z,67.93
2023-01-15T07:31:06.575Z,67.38
2023-01-15T07:33:09.600Z,68.06
2023-01-15T07:35:12.547Z,67.27
2023-01-15T07:37:15.601Z,67.30
2023-01-15T07:39:19.349Z,67.48
2023-01-15T07:41:41.863Z,67.49
2023-01-15T07:44:08.845Z,67.16
2023-01-15T07:46:32.550Z,67.04
2023-01-15T07:49:28.709Z,67.96
2023-01-15T07:51:43.963Z,67.76
2023-01-15T07:54:05.957Z,67.61
2023-01-15T07:56:11.805Z,67.53
2023-01-15T07:58:14.891Z,67.95
2023-01-15T08:00:23.006Z,67.72
2023-01-15T08:02:27.681Z,67.19
2023-01-15T08:04:30.995Z,67.22
2023-01-15T08:06:35.988Z,68.21
2023-01-15T08:08:38.983Z,67.02
2023-01-15T08:11:01.889Z,66.25
2023-01-15T08:13:23.380Z,66.64
2023-01-15T08:15:27.319Z,66.44
2023-01-15T08:17:30.653Z,66.62
2023-01-15T08:19:33.463Z,66.89
2023-01-15T08:21:36.276Z,67.30
2023-01-15T08:23:39.639Z,67.07
2023-01-15T08:25:42.862Z,65.96
2023-01-15T08:27:47.115Z,66.56
2023-01-15T08:29:51.972Z,66.04
2023-01-15T08:32:01.968Z,66.44
2023-01-15T08:34:07.312Z,65.60
2023-01-15T08:36:11.557Z,65.53
2023-01-15T08:38:14.556Z,65.82
2023-01-15T08:40:17.844Z,65.38
2023-01-15T08:42:21.788Z,65.32
2023-01-15T08:44:24.947Z,65.40
2023-01-15T08:46:27.945Z,64.97
2023-01-15T08:48:33.013Z,64.52
2023-01-15T08:50:35.597Z,64.61
2023-01-15T08:52:38.990Z,64.72
2023-01-15T08:54:42.300Z,64.69
2023-01-15T08:56:45.366Z,64.93
2023-01-15T08:58:48.979Z,64.91
2023-01-15T09:00:51.685Z,65.26
2023-01-15T09:02:54.419Z,65.15
2023-01-15T09:04:57.220Z,65.24
2023-01-15T09:06:59.966Z,65.02
2023-01-15T09:09:02.805Z,64.49
2023-01-15T09:11:07.219Z,64.35
2023-01-15T09:13:10.607Z,64.92
2023-01-15T09:15:13.409Z,65.37
2023-01-15T09:17:16.017Z,64.84
2023-01-15T09:19:18.618Z,64.53
2023-01-15T09:21:21.388Z,64.98
2023-01-15T09:23:24.938Z,64.68
2023-01-15T09:25:27.667Z,64.62
2023-01-15T09:27:30.774Z,64.22
2023-01-15T09:29:33.436Z,64.29
2023-01-15T09:31:36.385Z,64.13
2023-01-15T09:33:39.043Z,63.59
2023-01-15T09:35:43.267Z,63.68
2023-01-15T09:37:51.517Z,63.60
2023-01-15T09:39:54.153Z,63.28
2023-01-15T09:42:07.062Z,63.22
2023-01-15T09:44:18.816Z,62.20
2023-01-15T09:46:43.576Z,62.74
2023-01-15T09:49:02.051Z,63.09
2023-01-15T09:51:27.763Z,63.41
2023-01-15T09:54:08.639Z,63.06
2023-01-15T09:56:20.855Z,62.95
2023-01-15T09:58:39.683Z,62.76
2023-01-15T10:00:47.212Z,63.17
2023-01-15T10:03:03.331Z,62.71
2023-01-15T10:05:20.579Z,62.85
2023-01-15T10:07:30.906Z,63.13
2023-01-15T10:09:38.199Z,63.37
2023-01-15T10:12:10.276Z,62.91
2023-01-15T10:14:24.008Z,63.20
2023-01-15T10:16:29.843Z,63.08
2023-01-15T10:18:32.567Z,63.19
2023-01-15T10:20:59.891Z,62.38
2023-01-15T10:23:12.156Z,63.13
2023-01-15T10:25:27.508Z,62.93
2023-01-15T10:27:34.652Z,64.00
2023-01-15T10:29:45.655Z,63.09
2023-01-15T10:31:53.756Z,63.39
2023-01-15T10:33:59.518Z,63.37
2023-01-15T10:36:30.239Z,63.74
2023-01-15T10:38:57.957Z,64.35
2023-01-15T10:41:25.611Z,63.80
2023-01-15T10:44:02.215Z,64.89
2023-01-15T10:46:14.183Z,64.07
2023-01-15T10:48:38.705Z,64.25
2023-01-15T10:50:42.679Z,64.32
2023-01-15T10:53:09.476Z,63.60
2023-01-15T10:55:28.123Z,64.23
2023-01-15T10:58:09.047Z,65.09
2023-01-15T11:00:13.139Z,63.89
2023-01-15T11:02:35.439Z,64.03
2023-01-15T11:04:38.203Z,64.22
2023-01-15T11:06:41.973Z,64.78
2023-01-15T11:09:09.199Z,63.96
2023-01-15T11:11:59.140Z,64.11
2023-01-15T11:14:20.432Z,64.39
2023-01-15T11:16:45.478Z,65.34
2023-01-15T11:19:07.207Z,63.93
2023-01-15T11:21:19.449Z,64.17
2023-01-15T11:23:23.487Z,64.25
2023-01-15T11:25:29.780Z,63.93
2023-01-15T11:27:34.493Z,63.73
2023-01-15T11:29:38.060Z,63.82
2023-01-15T11:31:41.850Z,63.29
2023-01-15T11:33:56.519Z,64.46
2023-01-15T11:36:05.498Z,64.67
2023-01-15T11:38:14.850Z,64.40
2023-01-15T11:40:19.869Z,64.03
2023-01-15T11:42:41.358Z,63.79
2023-01-15T11:45:13.411Z,64.36
2023-01-15T11:47:37.054Z,64.27
2023-01-15T11:49:58.158Z,64.59
2023-01-15T11:52:03.685Z,65.61
2023-01-15T11:54:10.396Z,64.96
2023-01-15T11:56:21.121Z,65.42
2023-01-15T11:58:25.161Z,65.56
2023-01-15T12:00:33.076Z,65.53
2023-01-15T12:02:41.370Z,66.23
2023-01-15T12:04:55.851Z,65.99
2023-01-15T12:06:59.641Z,65.64
2023-01-15T12:09:19.428Z,66.10
2023-01-15T12:11:55.218Z,66.40
2023-01-15T12:14:25.407Z,66.01
2023-01-15T12:16:48.016Z,66.01
2023-01-15T12:19:07.479Z,66.43
2023-01-15T12:21:29.461Z,66.82
2023-01-15T12:23:41.402Z,66.51
2023-01-15T12:25:59.044Z,66.69
2023-01-15T12:28:01.589Z,66.83
2023-01-15T12:30:14.486Z,67.24
2023-01-15T12:32:23.451Z,67.16
2023-01-15T12:34:47.239Z,66.90
2023-01-15T12:36:55.362Z,67.35
2023-01-15T12:39:12.051Z,67.26
2023-01-15T12:41:50.460Z,67.36
2023-01-15T12:44:16.739Z,66.90
2023-01-15T12:46:31.208Z,67.22
2023-01-15T12:48:51.884Z,67.31
2023-01-15T12:51:02.351Z,67.73
2023-01-15T12:53:26.025Z,67.48
2023-01-15T12:55:32.447Z,67.65
2023-01-15T12:57:37.729Z,67.71
2023-01-15T13:00:07.588Z,67.55
2023-01-15T13:02:12.718Z,68.25
2023-01-15T13:04:36.622Z,68.12
2023-01-15T13:06:45.129Z,68.29
2023-01-15T13:09:14.863Z,68.05
2023-01-15T13:11:17.685Z,68.18
2023-01-15T13:13:25.159Z,68.11
2023-01-15T13:15:34.669Z,68.68
2023-01-15T13:17:55.479Z,68.62
2023-01-15T13:19:59.348Z,68.97
2023-01-15T13:22:08.909Z,68.61
2023-01-15T13:24:42.698Z,68.80
2023-01-15T13:27:18.021Z,69.21
2023-01-15T13:29:29.798Z,68.79
2023-01-15T13:31:35.255Z,68.92
2023-01-15T13:33:47.161Z,69.15
2023-01-15T13:35:57.275Z,68.87
2023-01-15T13:38:04.912Z,69.01
2023-01-15T13:40:10.426Z,69.43
2023-01-15T13:42:35.503Z,69.16
2023-01-15T13:44:47.410Z,69.40
2023-01-15T13:47:04.622Z,68.98
2023-01-15T13:49:19.187Z,70.05
2023-01-15T13:51:33.090Z,69.55
2023-01-15T13:53:44.472Z,69.29
2023-01-15T13:56:02.745Z,69.56
2023-01-15T13:58:20.187Z,69.43
2023-01-15T14:00:33.481Z,69.58
2023-01-15T14:02:40.927Z,69.51
2023-01-15T14:04:43.566Z,69.55
2023-01-15T14:06:50.175Z,70.02
2023-01-15T14:08:52.755Z,69.99
2023-01-15T14:10:55.703Z,70.06
2023-01-15T14:13:27.330Z,70.43
2023-01-15T14:15:48.485Z,69.96
2023-01-15T14:18:46.601Z,70.20
2023-01-15T14:21:15.308Z,70.15
2023-01-15T14:23:23.286Z,70.72
2023-01-15T14:25:49.800Z,70.19
2023-01-15T14:28:12.923Z,70.88
2023-01-15T14:30:36.510Z,70.54
2023-01-15T14:33:16.145Z,70.44
2023-01-15T14:35:22.770Z,70.27
2023-01-15T14:37:42.456Z,70.85
2023-01-15T14:39:49.412Z,71.12
2023-01-15T14:42:34.359Z,70.97
2023-01-15T14:44:37.799Z,71.06
2023-01-15T14:46:42.283Z,71.09
2023-01-15T14:48:44.986Z,70.89
2023-01-15T14:50:50.080Z,71.20
2023-01-15T14:53:00.473Z,71.48
2023-01-15T14:55:03.198Z,70.86
2023-01-15T14:57:09.060Z,70.81
2023-01-15T14:59:20.739Z,70.91
2023-01-15T15:01:37.250Z,70.92
2023-01-15T15:03:50.065Z,71.19
2023-01-15T15:05:53.324Z,70.83
2023-01-15T15:07:56.384Z,70.92
2023-01-15T15:10:13.815Z,71.67
2023-01-15T15:12:52.933Z,71.15
2023-01-15T15:15:19.537Z,70.74
2023-01-15T15:17:52.912Z,71.61
2023-01-15T15:20:07.562Z,71.00
2023-01-15T15:22:17.085Z,71.25
2023-01-15T15:24:33.152Z,71.26
2023-01-15T15:26:37.769Z,71.46
2023-01-15T15:28:40.573Z,71.22
2023-01-15T15:30:46.164Z,70.91
2023-01-15T15:32:48.966Z,71.12
2023-01-15T15:34:53.895Z,71.23
2023-01-15T15:37:01.313Z,71.01
2023-01-15T15:39:19.135Z,70.84
2023-01-15T15:41:43.779Z,70.70
2023-01-15T15:44:14.630Z,71.10
2023-01-15T15:47:08.030Z,70.69
2023-01-15T15:49:10.831Z,70.80
2023-01-15T15:51:33.234Z,71.04
2023-01-15T15:53:35.947Z,71.18
2023-01-15T15:55:42.279Z,71.21
2023-01-15T15:57:52.120Z,71.15
2023-01-15T15:59:55.194Z,71.01
2023-01-15T16:02:01.109Z,71.77
2023-01-15T16:04:04.058Z,71.35
2023-01-15T16:06:08.200Z,71.79
2023-01-15T16:08:35.469Z,71.38
2023-01-15T16:10:38.613Z,71.43
2023-01-15T16:12:47.243Z,71.52
2023-01-15T16:14:51.129Z,71.43
2023-01-15T16:16:54.875Z,71.52
2023-01-15T16:18:59.926Z,71.76
2023-01-15T16:21:03.182Z,71.51
2023-01-15T16:23:06.831Z,71.24
2023-01-15T16:25:32.991Z,71.02
2023-01-15T16:27:36.887Z,71.32
2023-01-15T16:29:40.284Z,71.30
2023-01-15T16:31:43.709Z,71.51
2023-01-15T16:33:47.434Z,70.82
2023-01-15T16:36:00.157Z,71.44
2023-01-15T16:38:05.373Z,71.42
2023-01-15T16:40:22.826Z,71.14
2023-01-15T16:42:40.344Z,71.53
2023-01-15T16:44:52.202Z,71.71
2023-01-15T16:46:58.629Z,71.63
2023-01-15T16:49:25.475Z,71.13
2023-01-15T16:51:32.823Z,71.71
2023-01-15T16:53:40.451Z,71.19
2023-01-15T16:55:45.571Z,71.35
2023-01-15T16:57:48.242Z,71.29
2023-01-15T16:59:58.247Z,71.53
2023-01-15T17:02:16.378Z,71.64
2023-01-15T17:04:41.425Z,71.73
2023-01-15T17:06:44.290Z,72.09
2023-01-15T17:08:51.034Z,71.65
2023-01-15T17:10:56.994Z,71.86
2023-01-15T17:12:59.865Z,71.49
2023-01-15T17:15:14.398Z,71.06
2023-01-15T17:17:23.151Z,71.35
2023-01-15T17:19:25.831Z,70.81
2023-01-15T17:21:29.603Z,71.25
2023-01-15T17:23:36.057Z,71.10
2023-01-15T17:25:38.814Z,71.45
2023-01-15T17:27:41.620Z,71.47
2023-01-15T17:29:45.306Z,71.13
2023-01-15T17:31:47.897Z,71.26
2023-01-15T17:33:53.651Z,71.51
2023-01-15T17:35:58.595Z,71.58
2023-01-15T17:38:01.576Z,71.15
2023-01-15T17:40:04.602Z,71.98
2023-01-15T17:42:19.337Z,71.59
2023-01-15T17:44:22.190Z,70.90
2023-01-15T17:46:25.002Z,71.67
2023-01-15T17:48:27.662Z,71.03
2023-01-15T17:50:30.434Z,70.94
2023-01-15T17:52:33.058Z,71.07
2023-01-15T17:54:54.281Z,70.88
2023-01-15T17:57:15.463Z,71.33
2023-01-15T17:59:36.639Z,71.69
2023-01-15T18:02:02.132Z,71.20
2023-01-15T18:04:24.426Z,71.23
2023-01-15T18:06:27.305Z,71.16
2023-01-15T18:08:31.520Z,71.14
2023-01-15T18:10:34.293Z,71.26
2023-01-15T18:12:36.966Z,71.47
2023-01-15T18:14:39.628Z,70.93
2023-01-15T18:16:42.311Z,71.73
2023-01-15T18:18:45.005Z,71.39
2023-01-15T18:20:47.561Z,71.69
2023-01-15T18:22:50.248Z,70.77
2023-01-15T18:24:52.990Z,70.89
2023-01-15T18:26:55.752Z,71.17
2023-01-15T18:28:58.461Z,71.25
2023-01-15T18:31:02.849Z,71.73
2023-01-15T18:33:06.916Z,71.17
2023-01-15T18:35:09.869Z,71.45
2023-01-15T18:37:13.508Z,71.40
2023-01-15T18:39:16.190Z,71.30
2023-01-15T18:41:37.484Z,71.17
2023-01-15T18:43:58.997Z,71.46
2023-01-15T18:46:20.198Z,71.94
2023-01-15T18:48:22.931Z,71.45
2023-01-15T18:50:25.786Z,71.47
2023-01-15T18:52:47.168Z,71.40
2023-01-15T18:54:50.231Z,71.91
2023-01-15T18:56:52.959Z,71.54
2023-01-15T18:58:56.766Z,71.06
2023-01-15T19:01:06.936Z,70.98
2023-01-15T19:03:09.778Z,70.56
2023-01-15T19:05:14.660Z,70.80
2023-01-15T19:07:18.175Z,70.37
2023-01-15T19:09:24.779Z,70.96
2023-01-15T19:11:28.448Z,70.72
2023-01-15T19:13:31.270Z,70.52
2023-01-15T19:15:52.268Z,70.50
2023-01-15T19:18:13.285Z,70.99
2023-01-15T19:20:18.897Z,70.23
2023-01-15T19:22:40.589Z,69.90
2023-01-15T19:24:43.235Z,69.87
2023-01-15T19:26:45.877Z,69.46
2023-01-15T19:28:48.478Z,69.76
2023-01-15T19:31:10.108Z,69.28
2023-01-15T19:33:12.812Z,69.40
2023-01-15T19:35:15.463Z,69.82
2023-01-15T19:37:18.146Z,69.63
2023-01-15T19:39:21.256Z,69.27
2023-01-15T19:41:42.385Z,69.81
2023-01-15T19:44:03.652Z,69.07
2023-01-15T19:46:28.281Z,68.40
2023-01-15T19:48:49.268Z,68.78
2023-01-15T19:50:54.421Z,68.72
2023-01-15T19:52:57.187Z,68.47
2023-01-15T19:55:00.501Z,68.45
2023-01-15T19:57:03.200Z,68.45
2023-01-15T19:59:07.136Z,68.28
2023-01-15T20:01:17.609Z,68.40
2023-01-15T20:03:20.907Z,68.03
2023-01-15T20:05:25.655Z,67.96
2023-01-15T20:07:28.325Z,67.92
2023-01-15T20:09:31.087Z,67.84
2023-01-15T20:11:53.666Z,68.13
2023-01-15T20:13:56.297Z,67.78
2023-01-15T20:16:01.985Z,68.34
2023-01-15T20:18:05.216Z,67.54
2023-01-15T20:20:10.014Z,67.50
2023-01-15T20:22:12.649Z,67.30
2023-01-15T20:24:15.293Z,67.32
2023-01-15T20:26:19.445Z,67.17
2023-01-15T20:28:22.060Z,67.13
2023-01-15T20:30:25.755Z,67.90
2023-01-15T20:32:28.463Z,67.03
2023-01-15T20:34:32.391Z,67.81
2023-01-15T20:36:35.889Z,66.96
2023-01-15T20:38:38.582Z,67.19
2023-01-15T20:40:41.432Z,66.85
2023-01-15T20:43:02.861Z,67.15
2023-01-15T20:45:11.435Z,67.05
2023-01-15T20:47:52.734Z,66.79
2023-01-15T20:49:55.372Z,66.67
2023-01-15T20:51:58.373Z,66.68
2023-01-15T20:54:01.076Z,66.43
2023-01-15T20:56:10.904Z,66.33
2023-01-15T20:58:13.641Z,66.84
2023-01-15T21:00:21.983Z,66.68
2023-01-15T21:02:26.013Z,66.54
2023-01-15T21:04:30.324Z,66.53
2023-01-15T21:06:33.384Z,66.00
2023-01-15T21:08:36.428Z,66.00
2023-01-15T21:10:40.097Z,66.38
2023-01-15T21:12:42.947Z,65.76
2023-01-15T21:14:45.660Z,66.39
2023-01-15T21:16:51.484Z,65.87
2023-01-15T21:18:54.243Z,66.07
2023-01-15T21:20:57.241Z,65.94
2023-01-15T21:22:59.913Z,65.82
2023-01-15T21:25:03.041Z,66.46
2023-01-15T21:27:06.509Z,66.41
2023-01-15T21:29:09.170Z,66.41
2023-01-15T21:31:13.703Z,66.19
2023-01-15T21:33:16.523Z,65.95
2023-01-15T21:35:19.394Z,65.73
2023-01-15T21:37:22.647Z,66.10
2023-01-15T21:39:26.538Z,65.92
2023-01-15T21:41:47.613Z,65.56
2023-01-15T21:44:08.845Z,66.14
2023-01-15T21:46:14.150Z,65.96
2023-01-15T21:48:20.403Z,66.10
2023-01-15T21:50:23.148Z,66.58
2023-01-15T21:52:26.291Z,66.54
2023-01-15T21:54:29.605Z,66.03
2023-01-15T21:56:32.276Z,65.76
2023-01-15T21:58:38.449Z,66.57
2023-01-15T22:00:41.182Z,66.12
2023-01-15T22:02:44.020Z,66.08
2023-01-15T22:04:47.323Z,67.03
2023-01-15T22:06:51.705Z,66.59
2023-01-15T22:08:55.609Z,65.93
2023-01-15T22:11:08.390Z,66.46
2023-01-15T22:13:11.037Z,66.49
2023-01-15T22:15:15.905Z,67.02
2023-01-15T22:17:18.580Z,66.47
2023-01-15T22:19:23.255Z,67.69
2023-01-15T22:21:25.899Z,67.36
2023-01-15T22:23:28.947Z,67.60
2023-01-15T22:25:31.740Z,67.56
2023-01-15T22:27:35.841Z,67.14
2023-01-15T22:29:41.089Z,67.44
2023-01-15T22:31:43.857Z,67.11
2023-01-15T22:33:46.691Z,67.39
2023-01-15T22:35:59.983Z,67.34
2023-01-15T22:38:02.874Z,67.24
2023-01-15T22:40:06.491Z,67.07
2023-01-15T22:42:24.627Z,67.05
2023-01-15T22:44:27.434Z,67.98
2023-01-15T22:46:30.073Z,67.27
2023-01-15T22:48:32.755Z,67.81
2023-01-15T22:50:35.383Z,67.66
2023-01-15T22:52:39.418Z,67.89
2023-01-15T22:54:45.101Z,67.91
2023-01-15T22:56:48.965Z,67.04
2023-01-15T22:58:55.621Z,67.82
2023-01-15T23:00:58.288Z,67.49
2023-01-15T23:03:07.208Z,67.33
2023-01-15T23:05:11.672Z,67.48
2023-01-15T23:07:14.407Z,67.34
2023-01-15T23:09:17.354Z,68.00
2023-01-15T23:11:19.944Z,67.84
2023-01-15T23:13:22.582Z,68.05
2023-01-15T23:15:25.284Z,68.05
2023-01-15T23:17:27.880Z,67.87
2023-01-15T23:19:30.490Z,68.01
2023-01-15T23:21:33.397Z,68.05
2023-01-15T23:23:37.174Z,67.91
2023-01-15T23:25:39.863Z,67.89
2023-01-15T23:27:42.471Z,68.16
2023-01-15T23:29:45.073Z,68.49
2023-01-15T23:31:47.715Z,68.43
2023-01-15T23:33:51.127Z,68.93
2023-01-15T23:35:54.127Z,68.37
2023-01-15T23:37:56.739Z,69.07
2023-01-15T23:39:59.332Z,68.76
2023-01-15T23:42:20.551Z,68.69
2023-01-15T23:44:41.867Z,68.73
2023-01-15T23:46:44.682Z,68.39
2023-01-15T23:48:47.312Z,68.62
2023-01-15T23:50:49.967Z,68.61
2023-01-15T23:52:52.626Z,68.75
2023-01-15T23:54:55.224Z,68.53
2023-01-15T23:56:59.522Z,69.29
2023-01-15T23:59:02.230Z,69.26
